createdAt,value
2022-08-05T00:01:35.637Z,2.15
2022-08-05T00:04:05.252Z,2.17
2022-08-05T00:06:36.439Z,1.98
2022-08-05T00:09:12.861Z,2.42
2022-08-05T00:11:48.469Z,2.13
2022-08-05T00:14:17.928Z,2.25
2022-08-05T00:16:52.661Z,2.15
2022-08-05T00:19:24.707Z,1.98
2022-08-05T00:21:52.532Z,1.98
2022-08-05T00:24:24.889Z,1.85
2022-08-05T00:26:58.558Z,2.03
2022-08-05T00:29:26.178Z,2.53
2022-08-05T00:32:12.519Z,1.88
2022-08-05T00:35:03.445Z,2.08
2022-08-05T00:37:51.057Z,2.30
2022-08-05T00:40:26.682Z,2.03
2022-08-05T00:42:58.078Z,2.38
2022-08-05T00:45:38.783Z,2.35
2022-08-05T00:48:08.356Z,2.10
2022-08-05T00:50:36.800Z,2.55
2022-08-05T00:53:44.711Z,2.30
2022-08-05T00:55:51.122Z,2.63
2022-08-05T00:58:19.357Z,2.15
2022-08-05T01:00:47.782Z,2.40
2022-08-05T01:03:23.035Z,2.28
2022-08-05T01:05:51.987Z,2.15
2022-08-05T01:08:42.111Z,2.08
2022-08-05T01:11:37.409Z,1.95
2022-08-05T01:14:27.826Z,2.90
2022-08-05T01:17:20.649Z,1.98
2022-08-05T01:20:00.894Z,2.00
2022-08-05T01:22:48.706Z,2.22
2022-08-05T01:26:01.161Z,2.22
2022-08-05T01:28:39.452Z,2.08
2022-08-05T01:31:27.760Z,2.42
2022-08-05T01:34:10.423Z,2.28
2022-08-05T01:36:49.498Z,2.03
2022-08-05T01:39:46.087Z,1.92
2022-08-05T01:42:11.098Z,2.17
2022-08-05T01:44:41.838Z,2.10
2022-08-05T01:47:11.600Z,2.20
2022-08-05T01:50:02.309Z,2.20
2022-08-05T01:52:32.505Z,1.95
2022-08-05T01:55:06.705Z,2.30
2022-08-05T01:58:10.553Z,2.30
2022-08-05T02:00:33.350Z,2.47
2022-08-05T02:03:33.977Z,2.10
2022-08-05T02:08:57.994Z,1.50
2022-08-05T02:11:33.436Z,1.85
2022-08-05T02:14:14.060Z,2.20
2022-08-05T02:16:53.118Z,2.33
2022-08-05T02:19:47.329Z,2.00
2022-08-05T02:22:30.027Z,2.08
2022-08-05T02:25:08.594Z,2.00
2022-08-05T02:27:58.601Z,2.40
2022-08-05T02:30:38.613Z,2.42
2022-08-05T02:33:35.686Z,1.88
2022-08-05T02:36:06.205Z,2.30
2022-08-05T02:38:38.121Z,1.83
2022-08-05T02:41:17.278Z,2.65
2022-08-05T02:44:02.243Z,2.30
2022-08-05T02:46:53.138Z,2.10
2022-08-05T02:49:36.762Z,2.15
2022-08-05T02:52:11.375Z,2.15
2022-08-05T02:54:42.779Z,2.10
2022-08-05T02:58:20.021Z,2.05
2022-08-05T03:00:12.444Z,2.13
2022-08-05T03:02:42.869Z,2.15
2022-08-05T03:05:13.774Z,2.25
2022-08-05T03:08:04.537Z,1.85
2022-08-05T03:10:30.782Z,1.92
2022-08-05T03:15:24.261Z,2.30
2022-08-05T03:17:55.772Z,2.30
2022-08-05T03:20:24.547Z,2.10
2022-08-05T03:22:55.360Z,2.50
2022-08-05T03:26:03.429Z,1.88
2022-08-05T03:28:14.588Z,2.05
2022-08-05T03:30:48.769Z,2.10
2022-08-05T03:33:17.444Z,2.42
2022-08-05T03:35:48.597Z,2.30
2022-08-05T03:38:17.219Z,2.08
2022-08-05T03:40:59.591Z,2.13
2022-08-05T03:44:08.241Z,2.40
2022-08-05T03:46:17.900Z,2.08
2022-08-05T03:48:45.497Z,2.22
2022-08-05T03:52:38.148Z,2.75
2022-08-05T03:55:54.207Z,2.17
2022-08-05T03:57:29.041Z,2.88
2022-08-05T04:00:15.948Z,2.58
2022-08-05T04:02:57.725Z,2.30
2022-08-05T04:05:38.597Z,2.38
2022-08-05T04:08:14.757Z,2.13
2022-08-05T04:10:58.821Z,2.33
2022-08-05T04:13:50.673Z,2.38
2022-08-05T04:16:14.646Z,2.42
2022-08-05T04:18:41.602Z,2.60
2022-08-05T04:21:10.889Z,2.08
2022-08-05T04:23:57.182Z,2.38
2022-08-05T04:26:26.292Z,2.38
2022-08-05T04:29:00.106Z,2.40
2022-08-05T04:31:27.581Z,2.38
2022-08-05T04:34:31.357Z,2.03
2022-08-05T04:36:52.286Z,2.28
2022-08-05T04:39:20.076Z,2.50
2022-08-05T04:41:48.426Z,2.45
2022-08-05T04:44:29.090Z,2.83
2022-08-05T04:46:59.160Z,2.33
2022-08-05T04:49:39.134Z,2.17
2022-08-05T04:52:15.327Z,2.58
2022-08-05T04:54:42.486Z,2.78
2022-08-05T04:57:09.436Z,2.65
2022-08-05T04:59:38.226Z,2.65
2022-08-05T05:02:36.357Z,2.25
2022-08-05T05:05:01.659Z,2.55
2022-08-05T05:07:32.491Z,2.60
2022-08-05T05:10:04.241Z,2.20
2022-08-05T05:12:31.380Z,2.67
2022-08-05T05:14:58.282Z,2.50
2022-08-05T05:17:56.840Z,2.10
2022-08-05T05:20:13.812Z,1.60
2022-08-05T05:22:44.178Z,2.10
2022-08-05T05:25:16.123Z,1.95
2022-08-05T05:27:53.631Z,2.17
2022-08-05T05:30:31.558Z,1.95
2022-08-05T05:33:08.850Z,1.98
2022-08-05T05:35:48.199Z,2.28
2022-08-05T05:38:22.376Z,2.20
2022-08-05T05:40:58.339Z,1.88
2022-08-05T05:43:57.048Z,1.85
2022-08-05T05:46:17.306Z,1.92
2022-08-05T05:48:48.254Z,2.40
2022-08-05T05:51:27.933Z,1.88
2022-08-05T05:53:59.618Z,2.05
2022-08-05T05:56:32.528Z,1.80
2022-08-05T05:59:06.999Z,1.70
2022-08-05T06:01:39.685Z,1.77
2022-08-05T06:04:13.118Z,1.48
2022-08-05T06:06:43.363Z,2.00
2022-08-05T06:09:17.452Z,1.77
2022-08-05T06:11:59.059Z,1.95
2022-08-05T06:14:28.871Z,1.50
2022-08-05T06:16:56.804Z,1.88
2022-08-05T06:19:26.234Z,1.90
2022-08-05T06:22:04.131Z,2.00
2022-08-05T06:24:32.307Z,2.17
2022-08-05T06:26:59.316Z,1.90
2022-08-05T06:29:49.519Z,1.80
2022-08-05T06:32:25.675Z,1.90
2022-08-05T06:35:06.090Z,1.70
2022-08-05T06:37:58.368Z,1.50
2022-08-05T06:40:27.855Z,1.70
2022-08-05T06:42:59.216Z,1.60
2022-08-05T06:45:44.650Z,1.75
2022-08-05T06:48:50.227Z,1.80
2022-08-05T06:51:00.219Z,1.98
2022-08-05T06:53:28.002Z,2.08
2022-08-05T06:55:58.650Z,1.80
2022-08-05T06:58:35.004Z,1.67
2022-08-05T07:01:06.329Z,2.10
2022-08-05T07:03:34.835Z,1.80
2022-08-05T07:06:06.087Z,1.92
2022-08-05T07:08:47.946Z,1.67
2022-08-05T07:11:25.209Z,1.85
2022-08-05T07:14:15.623Z,1.65
2022-08-05T07:18:01.761Z,1.58
2022-08-05T07:22:42.141Z,2.05
2022-08-05T07:25:53.811Z,1.38
2022-08-05T07:28:05.337Z,1.60
2022-08-05T07:30:38.508Z,1.67
2022-08-05T07:33:10.683Z,1.77
2022-08-05T07:36:03.869Z,1.60
2022-08-05T07:38:43.280Z,1.83
2022-08-05T07:42:13.103Z,1.60
2022-08-05T07:44:14.216Z,1.85
2022-08-05T07:46:47.412Z,2.40
2022-08-05T07:49:15.559Z,1.65
2022-08-05T07:51:52.870Z,1.75
2022-08-05T07:54:26.639Z,1.70
2022-08-05T07:57:02.007Z,1.52
2022-08-05T07:59:43.556Z,2.10
2022-08-05T08:02:16.001Z,2.00
2022-08-05T08:07:22.764Z,2.60
2022-08-05T08:09:52.877Z,2.38
2022-08-05T08:12:37.518Z,1.90
2022-08-05T08:15:14.310Z,1.98
2022-08-05T08:17:52.796Z,2.70
2022-08-05T08:20:43.245Z,2.30
2022-08-05T08:23:59.903Z,2.10
2022-08-05T08:25:59.771Z,2.30
2022-08-05T08:28:36.510Z,2.20
2022-08-05T08:31:06.652Z,1.70
2022-08-05T08:33:35.890Z,2.13
2022-08-05T08:36:38.918Z,1.98
2022-08-05T08:38:55.577Z,2.20
2022-08-05T08:41:26.205Z,2.10
2022-08-05T08:45:23.025Z,2.03
2022-08-05T08:47:22.295Z,2.42
2022-08-05T08:50:05.667Z,2.70
2022-08-05T08:53:03.414Z,2.25
2022-08-05T08:56:03.672Z,1.90
2022-08-05T08:58:37.593Z,1.55
2022-08-05T09:01:17.238Z,2.10
2022-08-05T09:03:55.530Z,2.00
2022-08-05T09:06:29.472Z,2.20
2022-08-05T09:09:01.387Z,2.33
2022-08-05T09:11:51.052Z,2.13
2022-08-05T09:14:58.319Z,2.90
2022-08-05T09:17:42.860Z,1.85
2022-08-05T09:20:02.351Z,2.30
2022-08-05T09:22:51.855Z,1.95
2022-08-05T09:25:23.936Z,1.88
2022-08-05T09:28:03.757Z,2.00
2022-08-05T09:30:34.867Z,1.90
2022-08-05T09:33:02.433Z,2.17
2022-08-05T09:35:32.708Z,2.10
2022-08-05T09:38:12.792Z,1.92
2022-08-05T09:40:53.694Z,2.10
2022-08-05T09:43:40.804Z,1.88
2022-08-05T09:46:29.514Z,2.20
2022-08-05T09:49:06.987Z,2.03
2022-08-05T09:51:38.206Z,1.77
2022-08-05T09:54:09.409Z,1.90
2022-08-05T09:59:17.316Z,1.70
2022-08-05T10:01:46.564Z,1.58
2022-08-05T10:04:16.237Z,1.60
2022-08-05T10:06:59.101Z,3.13
2022-08-05T10:09:29.458Z,1.90
2022-08-05T10:12:31.103Z,2.10
2022-08-05T10:15:24.303Z,1.50
2022-08-05T10:18:16.851Z,1.58
2022-08-05T10:20:55.550Z,2.30
2022-08-05T10:23:55.567Z,1.50
2022-08-05T10:26:14.473Z,1.88
2022-08-05T10:28:45.051Z,1.63
2022-08-05T10:32:47.785Z,2.17
2022-08-05T10:34:03.930Z,1.70
2022-08-05T10:36:50.186Z,1.58
2022-08-05T10:39:59.402Z,1.60
2022-08-05T10:42:33.498Z,1.70
2022-08-05T10:45:21.499Z,1.40
2022-08-05T10:51:01.583Z,1.17
2022-08-05T10:53:45.164Z,1.23
2022-08-05T10:56:25.183Z,1.65
2022-08-05T10:59:07.369Z,1.33
2022-08-05T11:01:54.004Z,1.52
2022-08-05T11:04:26.331Z,1.23
2022-08-05T11:07:04.540Z,1.20
2022-08-05T11:09:47.240Z,1.30
2022-08-05T11:12:42.063Z,1.48
2022-08-05T11:15:58.898Z,1.10
2022-08-05T11:18:34.240Z,1.40
2022-08-05T11:21:11.169Z,1.15
2022-08-05T11:24:05.718Z,1.35
2022-08-05T11:26:38.779Z,1.30
2022-08-05T11:29:12.518Z,1.40
2022-08-05T11:31:57.800Z,1.05
2022-08-05T11:34:50.807Z,1.45
2022-08-05T11:38:28.837Z,1.30
2022-08-05T11:41:01.073Z,1.17
2022-08-05T11:44:04.574Z,1.20
2022-08-05T11:46:36.023Z,1.30
2022-08-05T11:49:05.916Z,1.63
2022-08-05T11:51:43.711Z,1.20
2022-08-05T11:54:34.530Z,1.40
2022-08-05T11:57:08.013Z,1.50
2022-08-05T11:59:51.760Z,1.55
2022-08-05T12:02:31.485Z,1.48
2022-08-05T12:05:07.600Z,1.25
2022-08-05T12:08:03.379Z,1.40
2022-08-05T12:10:43.231Z,1.40
2022-08-05T12:13:18.706Z,1.38
2022-08-05T12:16:19.501Z,1.40
2022-08-05T12:18:52.201Z,1.40
2022-08-05T12:21:29.809Z,1.55
2022-08-05T12:24:07.074Z,1.40
2022-08-05T12:26:36.350Z,1.25
2022-08-05T12:29:11.899Z,1.13
2022-08-05T12:34:32.457Z,1.00
2022-08-05T12:37:10.617Z,1.05
2022-08-05T12:39:39.663Z,1.17
2022-08-05T12:42:14.908Z,1.33
2022-08-05T12:44:44.870Z,1.27
2022-08-05T12:47:17.073Z,1.60
2022-08-05T12:50:03.593Z,1.35
2022-08-05T12:52:42.260Z,1.75
2022-08-05T12:55:22.004Z,1.65
2022-08-05T12:58:49.931Z,1.65
2022-08-05T13:02:03.553Z,1.55
2022-08-05T13:03:32.224Z,1.13
2022-08-05T13:06:01.611Z,1.60
2022-08-05T13:08:32.259Z,1.52
2022-08-05T13:11:02.153Z,1.70
2022-08-05T13:14:06.134Z,1.40
2022-08-05T13:16:19.994Z,1.70
2022-08-05T13:18:58.668Z,1.75
2022-08-05T13:21:28.210Z,1.23
2022-08-05T13:24:05.794Z,1.52
2022-08-05T13:26:35.973Z,1.60
2022-08-05T13:29:05.117Z,1.95
2022-08-05T13:31:34.063Z,1.70
2022-08-05T13:34:23.604Z,1.38
2022-08-05T13:36:53.637Z,1.80
2022-08-05T13:40:13.196Z,1.55
2022-08-05T13:42:14.380Z,1.50
2022-08-05T13:44:45.959Z,1.83
2022-08-05T13:47:36.056Z,1.60
2022-08-05T13:50:04.242Z,1.40
2022-08-05T13:52:35.155Z,1.60
2022-08-05T13:55:07.519Z,1.40
2022-08-05T13:57:51.185Z,1.23
2022-08-05T14:00:26.838Z,1.77
2022-08-05T14:02:56.767Z,1.55
2022-08-05T14:05:29.312Z,1.38
2022-08-05T14:08:05.711Z,1.33
2022-08-05T14:10:35.595Z,1.40
2022-08-05T14:13:07.396Z,1.23
2022-08-05T14:18:23.458Z,1.13
2022-08-05T14:20:52.906Z,1.48
2022-08-05T14:23:25.281Z,1.30
2022-08-05T14:25:57.963Z,1.40
2022-08-05T14:28:29.527Z,1.60
2022-08-05T14:31:01.540Z,1.50
2022-08-05T14:33:32.460Z,1.30
2022-08-05T14:36:20.615Z,1.55
2022-08-05T14:38:50.302Z,1.70
2022-08-05T14:41:18.650Z,1.20
2022-08-05T14:44:02.697Z,1.60
2022-08-05T14:46:35.004Z,1.17
2022-08-05T14:51:42.868Z,1.20
2022-08-05T14:54:29.756Z,1.80
2022-08-05T14:57:00.017Z,1.35
2022-08-05T14:59:29.704Z,1.60
2022-08-05T15:02:03.289Z,1.15
2022-08-05T15:04:30.242Z,1.48
2022-08-05T15:06:57.154Z,1.40
2022-08-05T15:09:51.919Z,1.08
2022-08-05T15:12:11.630Z,1.10
2022-08-05T15:14:49.431Z,1.15
2022-08-05T15:17:46.289Z,1.50
2022-08-05T15:20:15.498Z,1.30
2022-08-05T15:22:45.302Z,0.90
2022-08-05T15:25:13.932Z,1.40
2022-08-05T15:27:43.063Z,1.30
2022-08-05T15:30:19.195Z,1.15
2022-08-05T15:32:46.700Z,1.52
2022-08-05T15:35:14.957Z,1.30
2022-08-05T15:38:35.003Z,1.52
2022-08-05T15:40:58.187Z,1.10
2022-08-05T15:43:20.388Z,1.00
2022-08-05T15:46:00.256Z,1.33
2022-08-05T15:48:29.799Z,1.50
2022-08-05T15:50:57.426Z,1.25
2022-08-05T15:53:26.585Z,1.08
2022-08-05T15:56:14.068Z,1.20
2022-08-05T15:58:41.381Z,1.42
2022-08-05T16:01:17.064Z,1.38
2022-08-05T16:03:50.886Z,1.13
2022-08-05T16:06:20.315Z,1.10
2022-08-05T16:08:50.271Z,1.27
2022-08-05T16:11:18.325Z,1.30
2022-08-05T16:13:48.388Z,1.00
2022-08-05T16:16:15.926Z,1.20
2022-08-05T16:18:52.985Z,1.58
2022-08-05T16:21:20.721Z,1.65
2022-08-05T16:24:12.820Z,1.48
2022-08-05T16:27:03.147Z,1.40
2022-08-05T16:29:37.683Z,1.55
2022-08-05T16:32:09.571Z,1.35
2022-08-05T16:34:37.326Z,1.70
2022-08-05T16:38:03.495Z,1.50
2022-08-05T16:40:04.195Z,2.10
2022-08-05T16:42:35.114Z,1.50
2022-08-05T16:46:02.816Z,1.30
2022-08-05T16:47:54.197Z,1.63
2022-08-05T16:50:23.378Z,2.10
2022-08-05T16:52:50.518Z,1.70
2022-08-05T16:55:17.455Z,1.50
2022-08-05T16:57:59.892Z,1.38
2022-08-05T17:00:34.459Z,1.52
2022-08-05T17:03:15.337Z,1.38
2022-08-05T17:05:53.741Z,1.92
2022-08-05T17:08:35.864Z,1.50
2022-08-05T17:11:16.582Z,1.25
2022-08-05T17:13:45.393Z,1.80
2022-08-05T17:16:30.223Z,1.85
2022-08-05T17:19:00.345Z,1.70
2022-08-05T17:21:35.533Z,1.60
2022-08-05T17:24:19.429Z,1.65
2022-08-05T17:26:57.627Z,1.85
2022-08-05T17:29:33.163Z,1.50
2022-08-05T17:32:01.294Z,1.70
2022-08-05T17:34:29.952Z,1.85
2022-08-05T17:37:02.590Z,1.60
2022-08-05T17:39:34.608Z,2.28
2022-08-05T17:44:50.478Z,1.75
2022-08-05T17:47:22.284Z,1.75
2022-08-05T17:49:52.007Z,2.17
2022-08-05T17:52:30.363Z,1.90
2022-08-05T17:54:58.196Z,1.88
2022-08-05T17:57:25.101Z,1.92
2022-08-05T18:00:03.491Z,1.80
2022-08-05T18:02:34.243Z,1.70
2022-08-05T18:05:06.372Z,2.00
2022-08-05T18:07:41.477Z,1.92
2022-08-05T18:10:14.119Z,1.90
2022-08-05T18:12:49.557Z,2.05
2022-08-05T18:15:16.461Z,2.00
2022-08-05T18:18:00.482Z,1.90
2022-08-05T18:20:32.421Z,2.05
2022-08-05T18:23:09.068Z,1.83
2022-08-05T18:25:38.829Z,1.90
2022-08-05T18:28:07.400Z,2.13
2022-08-05T18:30:39.121Z,2.08
2022-08-05T18:33:08.464Z,1.65
2022-08-05T18:36:01.197Z,2.00
2022-08-05T18:38:25.972Z,2.13
2022-08-05T18:41:56.163Z,1.70
2022-08-05T18:43:43.284Z,2.22
2022-08-05T18:46:19.765Z,2.00
2022-08-05T18:48:52.229Z,2.33
2022-08-05T18:52:04.236Z,1.95
2022-08-05T18:54:31.340Z,1.85
2022-08-05T18:57:01.026Z,1.80
2022-08-05T18:59:43.268Z,1.95
2022-08-05T19:02:27.937Z,1.83
2022-08-05T19:05:01.408Z,2.15
2022-08-05T19:07:29.783Z,2.10
2022-08-05T19:10:12.342Z,1.80
2022-08-05T19:12:39.217Z,2.30
2022-08-05T19:15:06.796Z,2.28
2022-08-05T19:18:09.830Z,2.30
2022-08-05T19:20:41.708Z,2.40
2022-08-05T19:24:03.940Z,2.40
2022-08-05T19:26:01.178Z,2.47
2022-08-05T19:30:56.156Z,2.28
2022-08-05T19:33:33.966Z,2.08
2022-08-05T19:36:07.211Z,1.77
2022-08-05T19:38:36.635Z,1.30
2022-08-05T19:41:07.080Z,1.35
2022-08-05T19:44:06.886Z,1.88
2022-08-05T19:46:30.178Z,1.67
2022-08-05T19:49:02.844Z,1.83
2022-08-05T19:51:56.342Z,1.65
2022-08-05T19:54:26.650Z,1.98
2022-08-05T19:57:06.895Z,1.73
2022-08-05T19:59:55.785Z,1.58
2022-08-05T20:02:27.115Z,1.52
2022-08-05T20:04:58.452Z,1.88
2022-08-05T20:07:48.226Z,1.85
2022-08-05T20:10:17.375Z,1.55
2022-08-05T20:12:49.110Z,2.28
2022-08-05T20:15:47.983Z,2.03
2022-08-05T20:18:10.252Z,1.63
2022-08-05T20:20:57.124Z,2.05
2022-08-05T20:23:40.079Z,1.40
2022-08-05T20:26:15.953Z,1.67
2022-08-05T20:28:50.217Z,2.00
2022-08-05T20:31:21.770Z,1.92
2022-08-05T20:33:50.793Z,1.70
2022-08-05T20:36:19.236Z,1.90
2022-08-05T20:38:54.114Z,1.85
2022-08-05T20:41:44.390Z,1.60
2022-08-05T20:44:18.808Z,2.15
2022-08-05T20:47:03.380Z,1.83
2022-08-05T20:49:33.283Z,1.50
2022-08-05T20:52:07.369Z,1.90
2022-08-05T20:54:42.758Z,1.85
2022-08-05T20:57:10.725Z,1.60
2022-08-05T21:00:10.650Z,1.75
2022-08-05T21:02:28.613Z,1.80
2022-08-05T21:04:55.568Z,1.60
2022-08-05T21:07:24.319Z,1.52
2022-08-05T21:09:53.514Z,1.38
2022-08-05T21:12:21.669Z,1.80
2022-08-05T21:14:53.230Z,1.88
2022-08-05T21:17:21.990Z,2.00
2022-08-05T21:19:50.441Z,1.40
2022-08-05T21:22:23.362Z,2.00
2022-08-05T21:24:52.560Z,2.20
2022-08-05T21:27:25.089Z,1.45
2022-08-05T21:29:52.632Z,1.92
2022-08-05T21:32:21.200Z,1.77
2022-08-05T21:34:56.007Z,1.92
2022-08-05T21:37:41.409Z,1.85
2022-08-05T21:40:13.141Z,1.80
2022-08-05T21:42:45.208Z,2.17
2022-08-05T21:45:24.158Z,2.25
2022-08-05T21:47:57.134Z,2.10
2022-08-05T21:50:26.704Z,2.05
2022-08-05T21:52:59.146Z,2.10
2022-08-05T21:56:01.175Z,2.38
2022-08-05T21:58:24.971Z,2.63
2022-08-05T22:00:57.812Z,2.45
2022-08-05T22:03:48.625Z,2.25
2022-08-05T22:06:12.137Z,1.70
2022-08-05T22:08:42.725Z,2.00
2022-08-05T22:11:15.667Z,2.15
2022-08-05T22:14:18.152Z,1.60
2022-08-05T22:16:41.680Z,1.45
2022-08-05T22:19:57.390Z,1.38
2022-08-05T22:22:05.048Z,1.33
2022-08-05T22:24:52.126Z,1.45
2022-08-05T22:28:08.275Z,1.70
2022-08-05T22:30:24.946Z,1.50
2022-08-05T22:33:00.321Z,1.38
2022-08-05T22:35:27.199Z,1.33
2022-08-05T22:38:14.080Z,1.58
2022-08-05T22:40:42.210Z,2.00
2022-08-05T22:43:36.872Z,1.27
2022-08-05T22:46:11.861Z,1.52
2022-08-05T22:48:41.786Z,1.23
2022-08-05T22:51:15.767Z,1.42
2022-08-05T22:53:51.239Z,1.38
2022-08-05T22:56:30.148Z,1.15
2022-08-05T22:59:04.195Z,1.52
2022-08-05T23:02:04.529Z,1.33
2022-08-05T23:04:33.406Z,2.22
2022-08-05T23:07:00.320Z,1.63
2022-08-05T23:09:57.579Z,1.90
2022-08-05T23:12:17.678Z,1.23
2022-08-05T23:14:44.998Z,1.50
2022-08-05T23:17:34.529Z,1.77
2022-08-05T23:20:16.337Z,1.95
2022-08-05T23:22:47.169Z,1.80
2022-08-05T23:25:51.003Z,2.00
2022-08-05T23:28:07.537Z,2.20
2022-08-05T23:30:40.672Z,2.45
2022-08-05T23:33:22.007Z,2.42
2022-08-05T23:35:56.129Z,2.35
2022-08-05T23:38:25.788Z,2.80
2022-08-05T23:40:53.089Z,3.03
2022-08-05T23:43:24.982Z,3.35
2022-08-05T23:46:20.913Z,2.58
2022-08-05T23:48:59.608Z,2.30
2022-08-05T23:51:53.954Z,2.60
2022-08-05T23:54:30.497Z,1.98
2022-08-05T23:57:03.675Z,2.20
